Time;durP1;ratioP1;P1;durP2;ratioP2;P2;SDS_P1;SDS_P2;PMS_P1;PMS_P2;Temp;Humidity;BMP_temperature;BMP_pressure;BME280_temperature;BME280_humidity;BME280_pressure;Samples;Min_cycle;Max_cycle;Signal;HPM_P1;HPM_P2
2023/07/02 00:01:44;;;;;;;0.70;0.70;;;24.20;52.30;;;;;;5109623;27;45110;-67
2023/07/02 00:04:13;;;;;;;0.80;0.80;;;24.20;52.30;;;;;;5109830;27;45379;-67
2023/07/02 00:06:41;;;;;;;0.73;0.55;;;24.20;52.30;;;;;;5109313;27;46643;-68
2023/07/02 00:09:08;;;;;;;1.55;0.80;;;24.20;52.20;;;;;;5109250;27;45320;-67
2023/07/02 00:11:35;;;;;;;0.80;0.80;;;24.20;52.30;;;;;;5109431;27;45346;-67
2023/07/02 00:14:02;;;;;;;0.70;0.68;;;24.20;52.30;;;;;;5109667;27;45118;-67
2023/07/02 00:16:29;;;;;;;0.80;0.80;;;24.20;52.30;;;;;;5109068;27;45426;-68
2023/07/02 00:18:55;;;;;;;0.70;0.70;;;24.20;52.30;;;;;;5109225;27;45303;-67
2023/07/02 00:21:22;;;;;;;0.57;0.57;;;24.20;52.30;;;;;;5109190;27;45373;-67
2023/07/02 00:23:51;;;;;;;0.70;0.70;;;24.20;52.30;;;;;;5109401;27;45553;-67
2023/07/02 00:26:18;;;;;;;0.60;0.60;;;24.20;52.30;;;;;;5108852;27;46905;-67
2023/07/02 00:28:44;;;;;;;0.68;0.68;;;24.10;52.80;;;;;;5108915;27;45419;-68
2023/07/02 00:31:11;;;;;;;0.60;0.60;;;24.10;52.20;;;;;;5109103;27;45540;-67
2023/07/02 00:33:38;;;;;;;0.73;0.73;;;24.10;52.20;;;;;;5109216;27;45419;-68
2023/07/02 00:36:05;;;;;;;0.60;0.60;;;24.10;52.10;;;;;;5108759;27;46746;-67
2023/07/02 00:38:32;;;;;;;0.68;0.68;;;24.10;52.10;;;;;;5109042;27;45401;-68
2023/07/02 00:41:00;;;;;;;0.60;0.60;;;24.10;52.10;;;;;;5108926;27;45366;-67
2023/07/02 00:43:28;;;;;;;0.60;0.60;;;24.10;52.20;;;;;;5109130;27;45327;-67
2023/07/02 00:45:54;;;;;;;0.70;0.70;;;24.10;52.10;;;;;;5108502;27;46670;-67
2023/07/02 00:48:21;;;;;;;0.70;0.70;;;24.10;52.20;;;;;;5108679;27;45292;-67
2023/07/02 00:50:48;;;;;;;0.75;0.75;;;24.10;52.10;;;;;;5108727;27;45325;-67
2023/07/02 00:53:15;;;;;;;0.70;0.70;;;24.10;52.20;;;;;;5108851;27;45363;-67
2023/07/02 00:55:42;;;;;;;0.70;0.70;;;24.10;52.20;;;;;;5108647;27;45443;-67
2023/07/02 00:58:10;;;;;;;0.77;0.77;;;24.10;52.20;;;;;;5108549;27;45340;-67
2023/07/02 01:00:37;;;;;;;0.70;0.70;;;24.00;52.80;;;;;;5108656;27;45295;-67
2023/07/02 01:03:04;;;;;;;0.70;0.70;;;24.00;52.20;;;;;;5108876;27;45184;-67
2023/07/02 01:05:35;;;;;;;1.10;0.70;;;24.00;52.20;;;;;;5108293;27;46383;-68
2023/07/02 01:08:02;;;;;;;0.60;0.60;;;24.00;52.10;;;;;;5108427;27;45261;-68
2023/07/02 01:10:30;;;;;;;0.70;0.60;;;24.00;52.20;;;;;;5108702;27;45335;-68
2023/07/02 01:12:57;;;;;;;0.60;0.60;;;24.00;52.20;;;;;;5108719;27;45604;-68
2023/07/02 01:15:25;;;;;;;0.70;0.70;;;24.00;52.10;;;;;;5108160;27;46724;-67
2023/07/02 01:17:52;;;;;;;0.70;0.70;;;24.00;52.10;;;;;;5108295;27;45242;-68
2023/07/02 01:20:20;;;;;;;0.77;0.77;;;24.00;52.20;;;;;;5108305;27;45133;-68
2023/07/02 01:22:51;;;;;;;0.63;0.63;;;24.00;52.20;;;;;;5108475;27;45547;-68
2023/07/02 01:25:18;;;;;;;0.60;0.60;;;24.00;52.20;;;;;;5107979;27;46834;-68
2023/07/02 01:27:44;;;;;;;0.80;0.80;;;23.90;52.10;;;;;;5108386;27;45310;-68
2023/07/02 01:30:12;;;;;;;0.65;0.65;;;23.90;52.10;;;;;;5108105;27;45324;-68
2023/07/02 01:32:39;;;;;;;0.65;0.65;;;23.90;52.10;;;;;;5108345;27;45427;-68
2023/07/02 01:35:06;;;;;;;0.73;0.73;;;23.90;52.10;;;;;;5107995;27;45403;-67
2023/07/02 01:37:37;;;;;;;0.90;0.80;;;23.90;52.10;;;;;;5107897;27;45310;-68
2023/07/02 01:40:05;;;;;;;1.23;0.90;;;23.90;52.10;;;;;;5107956;27;45257;-68
2023/07/02 01:42:32;;;;;;;0.80;0.80;;;23.90;52.00;;;;;;5108232;27;45236;-68
2023/07/02 01:44:59;;;;;;;1.35;0.60;;;23.90;52.10;;;;;;5107729;27;46428;-68
2023/07/02 01:47:26;;;;;;;0.65;0.65;;;23.90;52.10;;;;;;5107778;27;45382;-68
2023/07/02 01:49:53;;;;;;;0.70;0.70;;;23.90;52.70;;;;;;5107915;27;45312;-68
2023/07/02 01:52:19;;;;;;;1.10;0.80;;;23.90;52.10;;;;;;5107675;27;45271;-68
2023/07/02 01:54:47;;;;;;;0.90;0.65;;;23.90;52.10;;;;;;5107468;27;46418;-68
2023/07/02 01:57:14;;;;;;;0.80;0.80;;;23.90;52.10;;;;;;5107036;27;45146;-68
2023/07/02 01:59:41;;;;;;;0.80;0.80;;;23.90;52.00;;;;;;5107559;27;45392;-68
2023/07/02 02:02:08;;;;;;;0.80;0.80;;;23.80;52.10;;;;;;5107763;27;45550;-68
2023/07/02 02:04:35;;;;;;;0.63;0.63;;;23.80;52.00;;;;;;5107350;27;45361;-68
2023/07/02 02:07:01;;;;;;;0.80;0.80;;;23.80;52.10;;;;;;5107505;27;45312;-68
2023/07/02 02:09:30;;;;;;;0.90;0.90;;;23.80;52.10;;;;;;5107530;27;45302;-68
2023/07/02 02:11:58;;;;;;;0.80;0.80;;;23.80;52.10;;;;;;5107619;27;45478;-68
2023/07/02 02:14:25;;;;;;;3.15;0.80;;;23.80;52.00;;;;;;5107329;27;45415;-68
2023/07/02 02:16:51;;;;;;;0.63;0.63;;;23.80;52.00;;;;;;5107167;27;45359;-68
2023/07/02 02:19:18;;;;;;;0.63;0.63;;;23.80;52.00;;;;;;5107382;27;45252;-68
2023/07/02 02:21:45;;;;;;;0.82;0.57;;;23.80;52.00;;;;;;5107401;27;45335;-67
2023/07/02 02:24:12;;;;;;;0.98;0.98;;;23.80;52.10;;;;;;5107176;27;46759;-68
2023/07/02 02:26:38;;;;;;;0.93;0.93;;;23.80;52.10;;;;;;5104469;27;45394;-68
2023/07/02 02:29:08;;;;;;;0.70;0.70;;;23.80;52.10;;;;;;5107241;27;45288;-68
2023/07/02 02:31:35;;;;;;;0.80;0.80;;;23.80;52.10;;;;;;5107383;27;45396;-68
2023/07/02 02:34:02;;;;;;;0.93;0.90;;;23.80;52.20;;;;;;5106937;27;45607;-68
2023/07/02 02:36:29;;;;;;;1.00;0.95;;;23.80;52.10;;;;;;5107078;27;45366;-68
2023/07/02 02:38:55;;;;;;;0.93;0.93;;;23.80;52.10;;;;;;5107163;27;45321;-68
2023/07/02 02:41:22;;;;;;;1.17;1.00;;;23.80;52.10;;;;;;5107129;27;45358;-68
2023/07/02 02:43:49;;;;;;;1.30;1.05;;;23.80;52.20;;;;;;5106806;27;45267;-68
2023/07/02 02:46:22;;;;;;;1.30;0.85;;;23.70;52.10;;;;;;5107071;27;45397;-68
2023/07/02 02:48:49;;;;;;;0.95;0.82;;;23.70;52.20;;;;;;5106981;27;45419;-68
2023/07/02 02:51:15;;;;;;;0.80;0.80;;;23.70;52.10;;;;;;5106849;27;45247;-68
2023/07/02 02:53:42;;;;;;;0.80;0.80;;;23.70;52.10;;;;;;5106681;27;46335;-68
2023/07/02 02:56:09;;;;;;;0.80;0.80;;;23.70;52.10;;;;;;5106724;27;45434;-68
2023/07/02 02:58:36;;;;;;;0.80;0.80;;;23.70;52.00;;;;;;5106789;27;45357;-68
2023/07/02 03:01:03;;;;;;;0.80;0.80;;;23.70;52.10;;;;;;5106851;27;45252;-68
2023/07/02 03:03:34;;;;;;;1.20;1.10;;;23.70;52.10;;;;;;5106514;27;45494;-67
2023/07/02 03:06:01;;;;;;;0.88;0.85;;;23.70;52.70;;;;;;5106554;27;45296;-67
2023/07/02 03:08:28;;;;;;;0.85;0.80;;;23.70;52.10;;;;;;5102952;27;45319;-68
2023/07/02 03:10:54;;;;;;;0.75;0.75;;;23.70;52.10;;;;;;5106653;27;45367;-68
2023/07/02 03:13:21;;;;;;;1.08;0.98;;;23.70;52.10;;;;;;5106166;27;45437;-68
2023/07/02 03:15:48;;;;;;;0.90;0.90;;;23.70;52.00;;;;;;5106279;27;45300;-68
2023/07/02 03:18:15;;;;;;;1.17;0.70;;;23.70;52.00;;;;;;5103922;27;45329;-68
2023/07/02 03:20:43;;;;;;;0.82;0.82;;;23.70;52.00;;;;;;5106548;27;45372;-68
2023/07/02 03:23:10;;;;;;;1.10;0.98;;;23.70;52.00;;;;;;5106095;27;46380;-68
2023/07/02 03:25:36;;;;;;;0.90;0.90;;;23.70;52.10;;;;;;5105943;27;45282;-68
2023/07/02 03:28:03;;;;;;;1.00;0.98;;;23.70;52.00;;;;;;5106269;27;45341;-68
2023/07/02 03:30:30;;;;;;;1.50;0.90;;;23.70;52.00;;;;;;5106241;27;45403;-68
2023/07/02 03:32:58;;;;;;;0.90;0.90;;;23.60;52.00;;;;;;5106082;27;45324;-68
2023/07/02 03:35:25;;;;;;;0.80;0.80;;;23.60;52.00;;;;;;5106155;27;45152;-68
2023/07/02 03:37:53;;;;;;;0.95;0.90;;;23.60;52.00;;;;;;5106245;27;45349;-68
2023/07/02 03:40:20;;;;;;;1.05;0.75;;;23.60;52.00;;;;;;5106303;27;45373;-68
2023/07/02 03:42:46;;;;;;;0.80;0.80;;;23.60;52.00;;;;;;5105871;27;45509;-68
2023/07/02 03:45:13;;;;;;;0.85;0.85;;;23.60;52.00;;;;;;5106100;27;45345;-68
2023/07/02 03:47:40;;;;;;;0.93;0.82;;;23.60;52.00;;;;;;5106095;27;45378;-68
2023/07/02 03:50:07;;;;;;;2.53;0.90;;;23.60;52.00;;;;;;5105966;27;45428;-68
2023/07/02 03:52:34;;;;;;;1.00;0.95;;;23.60;52.00;;;;;;5105492;27;45229;-68
2023/07/02 03:55:02;;;;;;;0.80;0.80;;;23.60;52.00;;;;;;5105966;27;45352;-68
2023/07/02 03:57:30;;;;;;;1.60;1.23;;;23.60;52.00;;;;;;5106009;27;45310;-68
2023/07/02 03:59:57;;;;;;;0.85;0.85;;;23.60;52.00;;;;;;5106033;27;45340;-68
2023/07/02 04:02:23;;;;;;;1.27;1.00;;;23.60;52.00;;;;;;5105723;27;46372;-68
2023/07/02 04:04:50;;;;;;;1.20;1.10;;;23.60;52.00;;;;;;5105771;27;45327;-68
2023/07/02 04:07:17;;;;;;;1.20;1.10;;;23.60;51.90;;;;;;5105681;27;45371;-68
2023/07/02 04:09:44;;;;;;;1.10;1.00;;;23.50;51.90;;;;;;5105914;27;45302;-68
2023/07/02 04:12:12;;;;;;;1.30;1.20;;;23.50;52.00;;;;;;5105630;27;47547;-67
2023/07/02 04:14:39;;;;;;;1.00;1.00;;;23.50;51.90;;;;;;5105626;27;45386;-68
2023/07/02 04:17:06;;;;;;;0.95;0.95;;;23.50;51.90;;;;;;5106010;27;45318;-67
2023/07/02 04:19:33;;;;;;;1.42;1.20;;;23.50;51.90;;;;;;5106289;27;45245;-68
2023/07/02 04:22:00;;;;;;;1.10;1.00;;;23.50;51.90;;;;;;5109007;27;46698;-68
2023/07/02 04:24:27;;;;;;;1.65;1.30;;;23.50;51.80;;;;;;5109080;27;45378;-68
2023/07/02 04:26:54;;;;;;;1.15;1.02;;;23.50;51.80;;;;;;5109245;27;45313;-68
2023/07/02 04:29:22;;;;;;;1.52;1.20;;;23.50;51.80;;;;;;5109321;27;45379;-68
2023/07/02 04:31:49;;;;;;;1.40;1.30;;;23.50;52.40;;;;;;5108873;27;46426;-68
2023/07/02 04:34:15;;;;;;;1.85;1.25;;;23.50;51.80;;;;;;5109188;27;45382;-68
2023/07/02 04:36:42;;;;;;;1.65;1.23;;;23.50;51.90;;;;;;5108966;27;45354;-68
2023/07/02 04:39:10;;;;;;;1.45;1.33;;;23.50;51.80;;;;;;5109138;27;45375;-68
2023/07/02 04:41:37;;;;;;;1.40;1.30;;;23.50;51.80;;;;;;5108633;27;45554;-68
2023/07/02 04:44:04;;;;;;;2.28;1.40;;;23.50;51.90;;;;;;5108785;27;45333;-68
2023/07/02 04:46:32;;;;;;;1.35;1.25;;;23.50;51.80;;;;;;5108931;27;45354;-68
2023/07/02 04:48:59;;;;;;;2.38;1.50;;;23.50;51.80;;;;;;5109006;27;45449;-68
2023/07/02 04:51:26;;;;;;;2.50;1.48;;;23.50;51.80;;;;;;5108304;27;46581;-68
2023/07/02 04:53:53;;;;;;;2.08;1.70;;;23.50;51.80;;;;;;5108619;27;45266;-68
2023/07/02 04:56:19;;;;;;;2.08;1.65;;;23.50;51.90;;;;;;5108797;27;45329;-68
2023/07/02 04:58:46;;;;;;;1.92;1.60;;;23.40;51.80;;;;;;5108887;27;45351;-67
2023/07/02 05:01:13;;;;;;;1.70;1.60;;;23.40;51.80;;;;;;5108293;27;46339;-68
2023/07/02 05:03:44;;;;;;;1.58;1.48;;;23.40;51.80;;;;;;5108515;27;45287;-68
2023/07/02 05:06:11;;;;;;;1.60;1.45;;;23.40;51.80;;;;;;5108511;27;45453;-68
2023/07/02 05:08:38;;;;;;;2.10;1.90;;;23.40;51.80;;;;;;5108739;27;45388;-67
2023/07/02 05:11:05;;;;;;;2.22;1.85;;;23.40;52.40;;;;;;5108129;27;47306;-68
2023/07/02 05:13:32;;;;;;;1.92;1.83;;;23.40;51.90;;;;;;5108335;27;45181;-68
2023/07/02 05:15:58;;;;;;;1.90;1.60;;;23.40;51.80;;;;;;5108481;27;45240;-67
2023/07/02 05:18:25;;;;;;;1.95;1.70;;;23.40;51.70;;;;;;5108696;27;45474;-67
2023/07/02 05:20:53;;;;;;;2.25;1.52;;;23.40;51.80;;;;;;5108081;27;45540;-67
2023/07/02 05:23:20;;;;;;;2.15;1.95;;;23.40;51.80;;;;;;5108134;27;45314;-68
2023/07/02 05:25:47;;;;;;;2.90;1.90;;;23.40;51.70;;;;;;5108117;27;45333;-68
2023/07/02 05:28:14;;;;;;;2.00;1.80;;;23.40;51.70;;;;;;5108564;27;45368;-68
2023/07/02 05:30:41;;;;;;;2.42;1.77;;;23.40;51.70;;;;;;5107663;27;46408;-67
2023/07/02 05:33:08;;;;;;;2.67;2.10;;;23.40;51.60;;;;;;5107278;27;45327;-68
2023/07/02 05:35:34;;;;;;;2.92;2.33;;;23.40;51.70;;;;;;5108055;27;45282;-68
2023/07/02 05:38:03;;;;;;;3.50;2.20;;;23.40;51.70;;;;;;5108263;27;45381;-68
2023/07/02 05:40:30;;;;;;;2.70;1.95;;;23.40;51.70;;;;;;5107818;27;47405;-68
2023/07/02 05:42:57;;;;;;;2.88;1.90;;;23.40;51.70;;;;;;5107766;27;45386;-68
2023/07/02 05:45:24;;;;;;;4.10;2.40;;;23.40;51.70;;;;;;5107867;27;45389;-68
2023/07/02 05:47:51;;;;;;;3.08;2.08;;;23.40;51.60;;;;;;5108180;27;45336;-68
2023/07/02 05:50:18;;;;;;;2.90;2.33;;;23.40;51.60;;;;;;5107601;27;45484;-68
2023/07/02 05:52:44;;;;;;;2.85;2.22;;;23.40;51.60;;;;;;5107388;27;45463;-68
2023/07/02 05:55:13;;;;;;;3.15;2.40;;;23.40;51.60;;;;;;5107806;27;45341;-68
2023/07/02 05:57:39;;;;;;;3.47;2.38;;;23.40;51.60;;;;;;5107914;27;45296;-67
2023/07/02 06:00:07;;;;;;;3.53;2.45;;;23.40;51.60;;;;;;5107355;27;47580;-67
2023/07/02 06:02:34;;;;;;;2.55;2.28;;;23.40;51.60;;;;;;5107461;27;45304;-67
2023/07/02 06:05:01;;;;;;;4.20;2.45;;;23.40;51.50;;;;;;5107613;27;45349;-68
2023/07/02 06:07:28;;;;;;;3.60;2.67;;;23.40;51.50;;;;;;5107761;27;45258;-68
2023/07/02 06:09:55;;;;;;;5.55;2.72;;;23.40;51.70;;;;;;5107427;27;47438;-67
2023/07/02 06:12:24;;;;;;;3.17;2.50;;;23.40;51.60;;;;;;5107411;27;45276;-68
2023/07/02 06:14:50;;;;;;;3.85;2.80;;;23.40;51.50;;;;;;5107498;27;45316;-68
2023/07/02 06:17:17;;;;;;;4.07;2.90;;;23.40;51.50;;;;;;5107588;27;45371;-67
2023/07/02 06:19:45;;;;;;;3.30;2.83;;;23.30;51.50;;;;;;5107055;27;46424;-67
2023/07/02 06:22:12;;;;;;;3.70;2.65;;;23.40;51.60;;;;;;5107087;27;45344;-67
2023/07/02 06:24:39;;;;;;;4.70;2.72;;;23.40;51.50;;;;;;5107371;27;45286;-67
2023/07/02 06:27:06;;;;;;;4.15;2.63;;;23.40;51.50;;;;;;5107441;27;45395;-67
2023/07/02 06:29:34;;;;;;;5.55;3.10;;;23.40;51.60;;;;;;5106963;27;45455;-69
2023/07/02 06:32:01;;;;;;;5.72;3.22;;;23.40;51.50;;;;;;5107089;27;45310;-68
2023/07/02 06:34:27;;;;;;;5.70;3.08;;;23.40;51.50;;;;;;5107270;27;45311;-68
2023/07/02 06:36:54;;;;;;;4.65;3.05;;;23.40;51.40;;;;;;5107247;27;45418;-68
2023/07/02 06:39:21;;;;;;;3.78;2.70;;;23.40;52.10;;;;;;5106719;27;45584;-68
2023/07/02 06:41:48;;;;;;;5.78;3.15;;;23.40;51.40;;;;;;5106672;27;45331;-68
2023/07/02 06:44:15;;;;;;;4.38;3.22;;;23.40;51.50;;;;;;5106874;27;45426;-68
2023/07/02 06:46:46;;;;;;;5.07;2.90;;;23.40;51.40;;;;;;5107239;27;45358;-68
2023/07/02 06:49:13;;;;;;;4.75;3.25;;;23.40;51.40;;;;;;5106784;27;45471;-68
2023/07/02 06:51:41;;;;;;;4.82;3.33;;;23.40;51.30;;;;;;5106448;27;45332;-67
2023/07/02 06:54:07;;;;;;;4.50;3.38;;;23.40;51.30;;;;;;5106860;27;45169;-68
2023/07/02 06:56:34;;;;;;;4.60;3.38;;;23.40;51.30;;;;;;5106984;27;45321;-67
2023/07/02 06:59:01;;;;;;;3.72;3.15;;;23.40;51.30;;;;;;5106516;27;46430;-67
2023/07/02 07:01:28;;;;;;;4.90;3.30;;;23.50;51.40;;;;;;5106649;27;45426;-68
2023/07/02 07:03:56;;;;;;;6.35;3.35;;;23.50;51.30;;;;;;5106623;27;45340;-68
2023/07/02 07:06:23;;;;;;;4.68;3.28;;;23.50;51.30;;;;;;5106929;27;45308;-67
2023/07/02 07:08:50;;;;;;;5.95;3.45;;;23.50;51.20;;;;;;5106368;27;46379;-67
2023/07/02 07:11:17;;;;;;;4.38;3.40;;;23.50;51.30;;;;;;5106515;27;45378;-67
2023/07/02 07:13:44;;;;;;;5.50;3.80;;;23.50;51.20;;;;;;5106702;27;45285;-68
2023/07/02 07:16:11;;;;;;;4.50;3.42;;;23.50;51.20;;;;;;5106734;27;45314;-67
2023/07/02 07:18:38;;;;;;;5.93;3.58;;;23.50;51.20;;;;;;5106178;27;46404;-68
2023/07/02 07:21:06;;;;;;;3.80;3.40;;;23.50;51.10;;;;;;5106041;27;45272;-68
2023/07/02 07:23:33;;;;;;;5.60;3.55;;;23.50;51.00;;;;;;5106474;27;45394;-68
2023/07/02 07:26:00;;;;;;;4.10;3.38;;;23.50;51.00;;;;;;5106520;27;45315;-68
2023/07/02 07:28:26;;;;;;;5.13;3.58;;;23.60;51.00;;;;;;5106090;27;45339;-68
2023/07/02 07:30:53;;;;;;;6.28;3.72;;;23.60;51.00;;;;;;5106093;27;45326;-68
2023/07/02 07:33:20;;;;;;;6.50;4.15;;;23.60;50.90;;;;;;5104796;27;45268;-70
2023/07/02 07:35:47;;;;;;;9.45;4.20;;;23.60;51.00;;;;;;5106908;27;45362;-67
2023/07/02 07:38:16;;;;;;;12.05;4.43;;;23.50;51.10;;;;;;5106033;27;46402;-71
2023/07/02 07:40:43;;;;;;;10.73;4.18;;;23.60;51.20;;;;;;5106695;27;45397;-71
2023/07/02 07:43:10;;;;;;;6.40;4.80;;;23.60;51.20;;;;;;5106663;27;45256;-70
2023/07/02 07:45:37;;;;;;;8.73;5.30;;;23.70;51.20;;;;;;5107022;27;45445;-72
2023/07/02 07:48:04;;;;;;;6.60;4.40;;;23.70;51.10;;;;;;5106538;27;45407;-70
2023/07/02 07:50:31;;;;;;;11.30;4.47;;;23.80;51.00;;;;;;5106349;27;45296;-71
2023/07/02 07:52:58;;;;;;;5.93;4.35;;;23.90;50.90;;;;;;5106846;27;45244;-71
2023/07/02 07:55:27;;;;;;;8.05;5.05;;;23.90;50.70;;;;;;5108716;27;45467;-71
2023/07/02 07:57:54;;;;;;;7.50;5.15;;;24.00;50.70;;;;;;5107799;27;46766;-67
2023/07/02 08:00:21;;;;;;;10.35;5.63;;;24.10;50.60;;;;;;5107589;27;45974;-71
2023/07/02 08:02:47;;;;;;;8.48;5.03;;;24.10;50.60;;;;;;5110475;27;45362;-71
2023/07/02 08:05:14;;;;;;;7.70;5.38;;;24.10;50.40;;;;;;5109288;27;45490;-72
2023/07/02 08:07:41;;;;;;;13.05;7.45;;;24.20;51.00;;;;;;5117253;27;45225;-72
2023/07/02 08:10:08;;;;;;;20.80;8.98;;;24.20;50.50;;;;;;5098217;27;45504;-71
2023/07/02 08:12:37;;;;;;;16.08;9.10;;;24.30;50.30;;;;;;5106061;27;45358;-70
2023/07/02 08:15:04;;;;;;;21.23;8.93;;;24.30;50.00;;;;;;5109566;27;45461;-70
2023/07/02 08:17:31;;;;;;;17.38;9.70;;;24.40;50.00;;;;;;5105667;27;46382;-71
2023/07/02 08:19:58;;;;;;;20.58;10.25;;;24.40;49.90;;;;;;5109034;27;45255;-70
2023/07/02 08:22:25;;;;;;;18.35;9.65;;;24.50;50.30;;;;;;5109808;27;45377;-73
2023/07/02 08:24:52;;;;;;;25.95;14.00;;;24.50;49.70;;;;;;5109002;27;45381;-71
2023/07/02 08:27:19;;;;;;;26.02;14.07;;;24.50;49.80;;;;;;5109239;27;45431;-68
2023/07/02 08:29:48;;;;;;;21.85;11.50;;;24.50;49.80;;;;;;5120572;27;45301;-69
2023/07/02 08:32:20;;;;;;;22.55;12.02;;;24.60;49.70;;;;;;5109935;27;45300;-73
2023/07/02 08:34:47;;;;;;;24.58;12.18;;;24.60;49.60;;;;;;5110257;27;45439;-71
2023/07/02 08:37:13;;;;;;;22.65;12.43;;;24.60;49.60;;;;;;5109665;27;46393;-75
2023/07/02 08:39:41;;;;;;;20.23;12.32;;;24.70;49.40;;;;;;5108583;27;45360;-70
2023/07/02 08:42:08;;;;;;;23.05;12.88;;;24.70;49.40;;;;;;5091808;27;45486;-71
2023/07/02 08:44:35;;;;;;;21.55;12.73;;;24.80;49.50;;;;;;5088873;27;45327;-72
2023/07/02 08:47:03;;;;;;;21.80;13.35;;;24.80;49.50;;;;;;5088808;27;46414;-67
2023/07/02 08:49:30;;;;;;;23.73;13.10;;;24.80;49.60;;;;;;5092180;27;45666;-69
2023/07/02 08:51:57;;;;;;;26.95;14.85;;;24.90;49.30;;;;;;5088587;27;45339;-69
2023/07/02 08:54:24;;;;;;;23.15;13.68;;;24.90;49.30;;;;;;5102875;27;45297;-69
2023/07/02 08:56:50;;;;;;;22.50;14.65;;;24.90;49.10;;;;;;5108402;27;47281;-69
2023/07/02 08:59:17;;;;;;;25.02;13.98;;;24.80;48.80;;;;;;5107872;27;45392;-69
2023/07/02 09:01:47;;;;;;;26.25;14.75;;;24.80;49.00;;;;;;5104229;27;45463;-70
2023/07/02 09:04:23;;;;;;;23.52;14.68;;;24.80;49.70;;;;;;5105219;27;45564;-70
2023/07/02 09:06:49;;;;;;;22.85;13.35;;;24.90;49.30;;;;;;5109326;27;45400;-70
2023/07/02 09:09:16;;;;;;;21.75;13.75;;;24.90;49.20;;;;;;5091181;27;46044;-70
2023/07/02 09:11:50;;;;;;;24.52;14.32;;;25.00;49.00;;;;;;5097814;27;45525;-70
2023/07/02 09:14:27;;;;;;;24.38;14.30;;;25.00;48.90;;;;;;5108807;27;45251;-70
2023/07/02 09:17:04;;;;;;;25.10;13.48;;;25.10;48.60;;;;;;5107104;27;45306;-70
2023/07/02 09:19:32;;;;;;;25.23;14.25;;;25.00;48.30;;;;;;5108448;27;45327;-73
2023/07/02 09:22:00;;;;;;;23.10;14.43;;;25.00;48.60;;;;;;5091270;27;45279;-70
2023/07/02 09:24:27;;;;;;;25.10;14.18;;;25.00;48.90;;;;;;5108623;27;45318;-71
2023/07/02 09:26:55;;;;;;;28.15;14.15;;;25.00;48.90;;;;;;5108453;27;45313;-72
2023/07/02 09:29:22;;;;;;;33.78;14.07;;;25.00;49.30;;;;;;5108529;27;45245;-70
2023/07/02 09:31:49;;;;;;;27.92;14.90;;;25.00;48.90;;;;;;5098281;27;45357;-72
2023/07/02 09:34:16;;;;;;;29.48;14.50;;;25.00;48.40;;;;;;5090823;27;45674;-72
2023/07/02 09:36:45;;;;;;;29.25;15.13;;;25.00;48.30;;;;;;5087296;27;45280;-74
2023/07/02 09:39:12;;;;;;;22.02;14.30;;;25.10;48.30;;;;;;5088099;27;45398;-71
2023/07/02 09:41:40;;;;;;;30.75;13.75;;;25.10;48.40;;;;;;5088026;27;45366;-74
2023/07/02 09:44:07;;;;;;;30.63;15.10;;;25.20;48.50;;;;;;5107905;27;45300;-72
2023/07/02 09:46:34;;;;;;;30.67;14.45;;;25.20;48.40;;;;;;5100444;27;46353;-74
2023/07/02 09:49:01;;;;;;;28.30;15.00;;;25.30;48.40;;;;;;5088036;27;45363;-72
2023/07/02 09:51:28;;;;;;;26.38;15.00;;;25.30;48.30;;;;;;5102009;27;45428;-74
2023/07/02 09:53:56;;;;;;;25.13;14.23;;;25.30;48.10;;;;;;5100240;27;45153;-72
2023/07/02 09:56:23;;;;;;;23.95;13.73;;;25.30;48.20;;;;;;5095906;27;46584;-71
2023/07/02 09:58:50;;;;;;;24.17;13.93;;;25.40;48.90;;;;;;5102651;27;45452;-72
2023/07/02 10:01:17;;;;;;;30.77;14.00;;;25.40;48.30;;;;;;5108951;27;45298;-70
2023/07/02 10:03:44;;;;;;;29.70;15.52;;;25.50;48.70;;;;;;5095932;27;45581;-70
2023/07/02 10:06:11;;;;;;;25.90;14.27;;;25.50;48.50;;;;;;5099236;27;48390;-72
2023/07/02 10:08:37;;;;;;;31.92;13.57;;;25.50;48.60;;;;;;5099899;27;45448;-70
2023/07/02 10:11:10;;;;;;;26.17;13.90;;;25.60;49.00;;;;;;5108502;27;45342;-70
2023/07/02 10:13:36;;;;;;;27.25;14.40;;;25.60;49.30;;;;;;5099911;27;45402;-67
2023/07/02 10:16:03;;;;;;;31.00;15.05;;;25.70;49.10;;;;;;5102480;27;46762;-70
2023/07/02 10:18:30;;;;;;;24.10;14.10;;;25.80;49.00;;;;;;5106634;27;45365;-71
2023/07/02 10:20:57;;;;;;;33.75;14.63;;;25.80;49.60;;;;;;5107983;27;45252;-75
2023/07/02 10:23:33;;;;;;;30.23;14.52;;;25.90;49.10;;;;;;5108270;27;45375;-69
2023/07/02 10:26:11;;;;;;;32.75;15.25;;;26.00;49.50;;;;;;5107542;27;45811;-70
2023/07/02 10:28:38;;;;;;;28.90;14.90;;;26.00;49.50;;;;;;5107857;27;45180;-70
2023/07/02 10:31:05;;;;;;;30.40;14.35;;;26.00;49.30;;;;;;5107831;27;45341;-71
2023/07/02 10:33:32;;;;;;;28.13;15.55;;;26.00;49.40;;;;;;5089965;27;45386;-71
2023/07/02 10:35:59;;;;;;;22.95;13.70;;;26.00;49.00;;;;;;5087068;27;46284;-67
2023/07/02 10:38:26;;;;;;;28.20;14.40;;;26.10;50.70;;;;;;5086989;27;45142;-72
2023/07/02 10:40:56;;;;;;;28.38;14.50;;;26.10;50.30;;;;;;5086677;27;45138;-69
2023/07/02 10:43:28;;;;;;;24.40;13.65;;;26.10;50.90;;;;;;5100509;27;45528;-70
2023/07/02 10:45:55;;;;;;;24.40;14.60;;;26.10;50.00;;;;;;5100475;27;45441;-69
2023/07/02 10:48:22;;;;;;;23.17;13.50;;;26.10;50.90;;;;;;5096016;27;46372;-73
2023/07/02 10:50:48;;;;;;;24.42;13.85;;;26.10;50.60;;;;;;5103750;27;45402;-70
2023/07/02 10:53:16;;;;;;;22.60;13.07;;;26.20;50.80;;;;;;5107214;27;45367;-70
2023/07/02 10:55:43;;;;;;;23.60;13.18;;;26.20;52.70;;;;;;5097088;27;46923;-68
2023/07/02 10:58:12;;;;;;;23.42;13.25;;;26.30;52.70;;;;;;5091234;27;45916;-71
2023/07/02 11:00:46;;;;;;;19.48;13.25;;;26.30;52.20;;;;;;5116035;27;45383;-71
2023/07/02 11:03:19;;;;;;;23.20;14.20;;;26.40;52.40;;;;;;5117108;27;45447;-68
2023/07/02 11:05:46;;;;;;;28.95;19.63;;;26.50;51.50;;;;;;5090099;27;46311;-70
2023/07/02 11:08:13;;;;;;;29.05;17.80;;;26.50;51.50;;;;;;5106555;27;45585;-72
2023/07/02 11:10:40;;;;;;;25.25;16.80;;;26.60;50.30;;;;;;5106440;27;45248;-69
2023/07/02 11:13:14;;;;;;;34.05;23.98;;;26.70;48.80;;;;;;5106492;27;45536;-69
2023/07/02 11:15:41;;;;;;;25.48;17.95;;;26.70;48.60;;;;;;5105980;27;47377;-68
2023/07/02 11:18:12;;;;;;;21.83;15.18;;;26.70;48.40;;;;;;5115624;27;45322;-74
2023/07/02 11:20:39;;;;;;;25.38;15.75;;;26.60;47.90;;;;;;5127428;27;45448;-72
2023/07/02 11:23:06;;;;;;;25.67;15.07;;;26.60;48.80;;;;;;5124410;27;45396;-71
2023/07/02 11:25:33;;;;;;;25.83;14.68;;;26.60;48.40;;;;;;5124162;27;47420;-73
2023/07/02 11:28:03;;;;;;;21.90;15.57;;;26.60;50.00;;;;;;5127182;27;45296;-73
2023/07/02 11:30:30;;;;;;;23.98;15.68;;;26.70;50.90;;;;;;5140728;27;45376;-74
2023/07/02 11:32:57;;;;;;;23.67;13.75;;;26.80;50.00;;;;;;5130901;27;45315;-76
2023/07/02 11:35:34;;;;;;;23.98;13.98;;;26.80;49.60;;;;;;5127126;27;45331;-75
2023/07/02 11:38:01;;;;;;;29.60;13.65;;;26.90;50.30;;;;;;5127606;27;45310;-71
2023/07/02 11:40:28;;;;;;;19.63;12.65;;;27.00;49.70;;;;;;5127389;27;45280;-73
2023/07/02 11:42:55;;;;;;;20.27;12.52;;;27.00;48.90;;;;;;5125328;27;45445;-75
2023/07/02 11:45:22;;;;;;;21.58;13.38;;;27.00;49.20;;;;;;5126121;27;45245;-73
2023/07/02 11:47:49;;;;;;;21.70;13.20;;;27.00;48.80;;;;;;5138188;27;45839;-74
2023/07/02 11:50:15;;;;;;;17.63;12.38;;;26.90;49.40;;;;;;5127568;27;45248;-70
2023/07/02 11:52:44;;;;;;;21.52;13.07;;;27.00;48.90;;;;;;5127247;27;45429;-74
2023/07/02 11:55:10;;;;;;;22.92;13.20;;;27.00;48.70;;;;;;5113451;27;45513;-77
2023/07/02 11:57:38;;;;;;;22.35;12.85;;;27.00;48.80;;;;;;5107038;27;45278;-76
2023/07/02 12:00:06;;;;;;;20.77;12.65;;;27.00;49.00;;;;;;5115681;27;45521;-72
2023/07/02 12:02:33;;;;;;;18.48;11.57;;;27.00;48.00;;;;;;5128435;27;45387;-69
2023/07/02 12:04:59;;;;;;;18.33;12.00;;;27.00;48.50;;;;;;5126409;27;46477;-69
2023/07/02 12:07:26;;;;;;;19.00;11.95;;;27.00;47.90;;;;;;5127738;27;45212;-70
2023/07/02 12:09:54;;;;;;;18.13;13.05;;;27.00;47.70;;;;;;5126816;27;45146;-70
2023/07/02 12:12:21;;;;;;;17.05;12.00;;;27.00;47.50;;;;;;5126867;27;45406;-70
2023/07/02 12:14:48;;;;;;;19.30;12.20;;;27.00;47.50;;;;;;5126535;27;45239;-70
2023/07/02 12:17:15;;;;;;;18.42;12.18;;;27.00;47.40;;;;;;5123863;27;45372;-70
2023/07/02 12:19:42;;;;;;;19.88;11.80;;;27.10;47.50;;;;;;5143256;27;45299;-70
2023/07/02 12:22:09;;;;;;;18.05;11.77;;;27.10;47.40;;;;;;5126671;27;45532;-69
2023/07/02 12:24:36;;;;;;;16.02;11.40;;;27.10;47.40;;;;;;5126431;27;46455;-69
2023/07/02 12:27:05;;;;;;;21.02;11.77;;;27.10;47.40;;;;;;5126450;27;45382;-71
2023/07/02 12:29:32;;;;;;;18.25;11.55;;;27.10;47.40;;;;;;5125978;27;45202;-69
2023/07/02 12:31:59;;;;;;;17.90;11.10;;;27.10;47.40;;;;;;5126606;27;45336;-69
2023/07/02 12:34:26;;;;;;;17.90;10.88;;;27.10;47.30;;;;;;5126502;27;47226;-70
2023/07/02 12:36:53;;;;;;;14.40;11.00;;;27.10;47.40;;;;;;5126453;27;45291;-69
2023/07/02 12:39:20;;;;;;;18.88;11.55;;;27.10;47.20;;;;;;5124865;27;45422;-70
2023/07/02 12:41:47;;;;;;;17.75;11.20;;;27.10;47.30;;;;;;5128467;27;45457;-69